sensor_id;sensor_type;location;lat;lon;timestamp;P1;durP1;ratioP1;P2;durP2;ratioP2
67193;SDS011;54121;53.508;49.422;2023-02-21T00:00:33;33.60;;;12.95;;
67193;SDS011;54121;53.508;49.422;2023-02-21T00:03:18;23.88;;;10.90;;
67193;SDS011;54121;53.508;49.422;2023-02-21T00:06:03;24.95;;;11.50;;
67193;SDS011;54121;53.508;49.422;2023-02-21T00:08:50;20.25;;;9.63;;
67193;SDS011;54121;53.508;49.422;2023-02-21T00:11:39;25.33;;;11.05;;
67193;SDS011;54121;53.508;49.422;2023-02-21T00:14:25;29.95;;;13.27;;
67193;SDS011;54121;53.508;49.422;2023-02-21T00:17:10;25.80;;;10.93;;
67193;SDS011;54121;53.508;49.422;2023-02-21T00:19:55;34.60;;;15.05;;
67193;SDS011;54121;53.508;49.422;2023-02-21T00:22:40;25.90;;;13.80;;
67193;SDS011;54121;53.508;49.422;2023-02-21T00:25:24;26.13;;;13.05;;
67193;SDS011;54121;53.508;49.422;2023-02-21T00:28:12;22.15;;;9.73;;
67193;SDS011;54121;53.508;49.422;2023-02-21T00:30:56;23.60;;;10.75;;
67193;SDS011;54121;53.508;49.422;2023-02-21T00:33:41;23.90;;;10.75;;
67193;SDS011;54121;53.508;49.422;2023-02-21T00:36:26;25.27;;;11.27;;
67193;SDS011;54121;53.508;49.422;2023-02-21T00:39:11;24.73;;;10.85;;
67193;SDS011;54121;53.508;49.422;2023-02-21T00:41:55;23.85;;;10.13;;
67193;SDS011;54121;53.508;49.422;2023-02-21T00:44:40;23.08;;;10.48;;
67193;SDS011;54121;53.508;49.422;2023-02-21T00:47:25;27.30;;;11.93;;
67193;SDS011;54121;53.508;49.422;2023-02-21T00:50:09;29.13;;;15.38;;
67193;SDS011;54121;53.508;49.422;2023-02-21T00:52:54;22.75;;;10.52;;
67193;SDS011;54121;53.508;49.422;2023-02-21T00:55:39;27.73;;;11.65;;
67193;SDS011;54121;53.508;49.422;2023-02-21T00:58:23;23.00;;;11.38;;
67193;SDS011;54121;53.508;49.422;2023-02-21T01:01:08;23.52;;;10.45;;
67193;SDS011;54121;53.508;49.422;2023-02-21T01:03:53;26.88;;;15.57;;
67193;SDS011;54121;53.508;49.422;2023-02-21T01:06:38;26.45;;;11.65;;
67193;SDS011;54121;53.508;49.422;2023-02-21T01:09:22;31.67;;;14.77;;
67193;SDS011;54121;53.508;49.422;2023-02-21T01:12:07;31.20;;;16.23;;
67193;SDS011;54121;53.508;49.422;2023-02-21T01:14:52;25.17;;;12.25;;
67193;SDS011;54121;53.508;49.422;2023-02-21T01:17:37;21.02;;;10.52;;
67193;SDS011;54121;53.508;49.422;2023-02-21T01:20:22;32.28;;;10.57;;
67193;SDS011;54121;53.508;49.422;2023-02-21T01:23:07;27.92;;;12.30;;
67193;SDS011;54121;53.508;49.422;2023-02-21T01:25:51;29.58;;;14.55;;
67193;SDS011;54121;53.508;49.422;2023-02-21T01:28:36;26.70;;;13.55;;
67193;SDS011;54121;53.508;49.422;2023-02-21T01:31:21;27.70;;;13.02;;
67193;SDS011;54121;53.508;49.422;2023-02-21T01:34:06;26.77;;;11.95;;
67193;SDS011;54121;53.508;49.422;2023-02-21T01:36:51;26.83;;;11.63;;
67193;SDS011;54121;53.508;49.422;2023-02-21T01:39:36;25.58;;;11.48;;
67193;SDS011;54121;53.508;49.422;2023-02-21T01:42:22;29.50;;;12.60;;
67193;SDS011;54121;53.508;49.422;2023-02-21T01:48:05;21.17;;;9.70;;
67193;SDS011;54121;53.508;49.422;2023-02-21T01:51:01;22.23;;;10.23;;
67193;SDS011;54121;53.508;49.422;2023-02-21T01:53:48;22.38;;;9.75;;
67193;SDS011;54121;53.508;49.422;2023-02-21T01:56:34;22.98;;;9.70;;
67193;SDS011;54121;53.508;49.422;2023-02-21T01:59:20;22.48;;;9.98;;
67193;SDS011;54121;53.508;49.422;2023-02-21T02:02:18;18.65;;;8.45;;
67193;SDS011;54121;53.508;49.422;2023-02-21T02:05:15;23.08;;;9.20;;
67193;SDS011;54121;53.508;49.422;2023-02-21T02:08:00;22.75;;;9.65;;
67193;SDS011;54121;53.508;49.422;2023-02-21T02:10:47;21.48;;;10.23;;
67193;SDS011;54121;53.508;49.422;2023-02-21T02:16:44;22.45;;;7.78;;
67193;SDS011;54121;53.508;49.422;2023-02-21T02:39:04;14.68;;;6.65;;
67193;SDS011;54121;53.508;49.422;2023-02-21T02:42:16;19.88;;;8.40;;
67193;SDS011;54121;53.508;49.422;2023-02-21T02:47:57;25.00;;;11.43;;
67193;SDS011;54121;53.508;49.422;2023-02-21T02:50:28;31.60;;;13.27;;
67193;SDS011;54121;53.508;49.422;2023-02-21T02:52:58;22.17;;;8.25;;
67193;SDS011;54121;53.508;49.422;2023-02-21T02:57:59;23.80;;;9.90;;
67193;SDS011;54121;53.508;49.422;2023-02-21T03:00:27;26.20;;;10.57;;
67193;SDS011;54121;53.508;49.422;2023-02-21T03:08:27;21.63;;;10.38;;
67193;SDS011;54121;53.508;49.422;2023-02-21T03:11:18;23.00;;;7.40;;
67193;SDS011;54121;53.508;49.422;2023-02-21T03:13:48;19.77;;;9.55;;
67193;SDS011;54121;53.508;49.422;2023-02-21T03:19:14;21.45;;;8.27;;
67193;SDS011;54121;53.508;49.422;2023-02-21T03:21:48;24.48;;;10.43;;
67193;SDS011;54121;53.508;49.422;2023-02-21T03:27:29;19.48;;;9.23;;
67193;SDS011;54121;53.508;49.422;2023-02-21T03:29:59;27.75;;;12.52;;
67193;SDS011;54121;53.508;49.422;2023-02-21T03:32:39;24.42;;;12.13;;
67193;SDS011;54121;53.508;49.422;2023-02-21T03:35:09;23.17;;;11.02;;
67193;SDS011;54121;53.508;49.422;2023-02-21T03:37:37;28.38;;;11.52;;
67193;SDS011;54121;53.508;49.422;2023-02-21T03:40:07;26.30;;;10.55;;
67193;SDS011;54121;53.508;49.422;2023-02-21T03:42:36;22.38;;;9.20;;
67193;SDS011;54121;53.508;49.422;2023-02-21T03:45:09;22.20;;;9.60;;
67193;SDS011;54121;53.508;49.422;2023-02-21T03:47:35;25.35;;;10.50;;
67193;SDS011;54121;53.508;49.422;2023-02-21T03:50:02;20.75;;;9.38;;
67193;SDS011;54121;53.508;49.422;2023-02-21T03:52:34;22.20;;;10.82;;
67193;SDS011;54121;53.508;49.422;2023-02-21T03:55:01;26.83;;;11.52;;
67193;SDS011;54121;53.508;49.422;2023-02-21T03:57:34;21.08;;;10.75;;
67193;SDS011;54121;53.508;49.422;2023-02-21T04:00:02;21.65;;;9.45;;
67193;SDS011;54121;53.508;49.422;2023-02-21T04:02:38;21.58;;;9.30;;
67193;SDS011;54121;53.508;49.422;2023-02-21T04:05:10;26.70;;;11.50;;
67193;SDS011;54121;53.508;49.422;2023-02-21T04:07:37;29.17;;;12.45;;
67193;SDS011;54121;53.508;49.422;2023-02-21T04:10:03;18.25;;;8.63;;
67193;SDS011;54121;53.508;49.422;2023-02-21T04:12:30;27.65;;;13.93;;
67193;SDS011;54121;53.508;49.422;2023-02-21T04:14:56;20.20;;;10.48;;
67193;SDS011;54121;53.508;49.422;2023-02-21T04:17:23;21.77;;;9.88;;
67193;SDS011;54121;53.508;49.422;2023-02-21T04:19:56;20.80;;;8.93;;
67193;SDS011;54121;53.508;49.422;2023-02-21T04:22:28;22.02;;;8.82;;
67193;SDS011;54121;53.508;49.422;2023-02-21T04:25:14;21.67;;;9.45;;
67193;SDS011;54121;53.508;49.422;2023-02-21T04:27:46;22.40;;;8.88;;
67193;SDS011;54121;53.508;49.422;2023-02-21T04:30:12;25.95;;;9.82;;
67193;SDS011;54121;53.508;49.422;2023-02-21T04:32:49;20.42;;;8.65;;
67193;SDS011;54121;53.508;49.422;2023-02-21T04:35:16;26.67;;;9.57;;
67193;SDS011;54121;53.508;49.422;2023-02-21T04:37:49;24.70;;;10.60;;
67193;SDS011;54121;53.508;49.422;2023-02-21T04:40:15;22.58;;;10.80;;
67193;SDS011;54121;53.508;49.422;2023-02-21T04:42:42;23.77;;;10.60;;
67193;SDS011;54121;53.508;49.422;2023-02-21T04:45:08;17.55;;;9.50;;
67193;SDS011;54121;53.508;49.422;2023-02-21T04:47:35;20.40;;;9.50;;
67193;SDS011;54121;53.508;49.422;2023-02-21T04:50:02;20.20;;;10.35;;
67193;SDS011;54121;53.508;49.422;2023-02-21T04:55:28;17.23;;;9.97;;
67193;SDS011;54121;53.508;49.422;2023-02-21T04:57:55;17.92;;;8.57;;
67193;SDS011;54121;53.508;49.422;2023-02-21T05:00:27;19.52;;;8.88;;
67193;SDS011;54121;53.508;49.422;2023-02-21T05:02:54;20.15;;;8.68;;
67193;SDS011;54121;53.508;49.422;2023-02-21T05:05:20;20.27;;;8.25;;
67193;SDS011;54121;53.508;49.422;2023-02-21T05:07:47;17.88;;;7.43;;
67193;SDS011;54121;53.508;49.422;2023-02-21T05:10:14;17.35;;;8.45;;
67193;SDS011;54121;53.508;49.422;2023-02-21T05:12:41;15.75;;;7.90;;
67193;SDS011;54121;53.508;49.422;2023-02-21T05:15:20;16.50;;;8.75;;
67193;SDS011;54121;53.508;49.422;2023-02-21T05:17:46;14.77;;;7.47;;
67193;SDS011;54121;53.508;49.422;2023-02-21T05:20:13;15.18;;;6.93;;
67193;SDS011;54121;53.508;49.422;2023-02-21T05:22:40;13.73;;;7.53;;
67193;SDS011;54121;53.508;49.422;2023-02-21T05:25:09;12.63;;;6.90;;
67193;SDS011;54121;53.508;49.422;2023-02-21T05:27:41;10.63;;;6.85;;
67193;SDS011;54121;53.508;49.422;2023-02-21T05:30:08;11.70;;;7.20;;
67193;SDS011;54121;53.508;49.422;2023-02-21T05:32:35;11.18;;;6.53;;
67193;SDS011;54121;53.508;49.422;2023-02-21T05:35:01;12.43;;;6.07;;
67193;SDS011;54121;53.508;49.422;2023-02-21T05:37:28;13.40;;;7.22;;
67193;SDS011;54121;53.508;49.422;2023-02-21T05:39:56;10.93;;;5.70;;
67193;SDS011;54121;53.508;49.422;2023-02-21T05:42:22;13.27;;;7.43;;
67193;SDS011;54121;53.508;49.422;2023-02-21T05:44:49;13.00;;;7.25;;
67193;SDS011;54121;53.508;49.422;2023-02-21T05:47:27;13.18;;;7.22;;
67193;SDS011;54121;53.508;49.422;2023-02-21T05:49:53;11.82;;;5.45;;
67193;SDS011;54121;53.508;49.422;2023-02-21T05:52:20;8.05;;;3.97;;
67193;SDS011;54121;53.508;49.422;2023-02-21T05:54:46;9.52;;;4.43;;
67193;SDS011;54121;53.508;49.422;2023-02-21T05:57:13;7.22;;;3.47;;
67193;SDS011;54121;53.508;49.422;2023-02-21T05:59:39;10.68;;;4.90;;
67193;SDS011;54121;53.508;49.422;2023-02-21T06:02:06;7.28;;;4.75;;
67193;SDS011;54121;53.508;49.422;2023-02-21T06:04:52;10.02;;;6.45;;
67193;SDS011;54121;53.508;49.422;2023-02-21T06:07:24;10.68;;;6.25;;
67193;SDS011;54121;53.508;49.422;2023-02-21T06:09:56;10.70;;;7.32;;
67193;SDS011;54121;53.508;49.422;2023-02-21T06:12:22;13.38;;;6.60;;
67193;SDS011;54121;53.508;49.422;2023-02-21T06:14:49;11.60;;;6.05;;
67193;SDS011;54121;53.508;49.422;2023-02-21T06:17:15;9.85;;;6.75;;
67193;SDS011;54121;53.508;49.422;2023-02-21T06:19:55;12.02;;;5.97;;
67193;SDS011;54121;53.508;49.422;2023-02-21T06:22:28;8.93;;;5.72;;
67193;SDS011;54121;53.508;49.422;2023-02-21T06:24:54;7.80;;;5.05;;
67193;SDS011;54121;53.508;49.422;2023-02-21T06:27:21;12.43;;;6.35;;
67193;SDS011;54121;53.508;49.422;2023-02-21T06:29:48;12.30;;;6.45;;
67193;SDS011;54121;53.508;49.422;2023-02-21T06:32:14;10.95;;;6.47;;
67193;SDS011;54121;53.508;49.422;2023-02-21T06:34:42;10.52;;;5.80;;
67193;SDS011;54121;53.508;49.422;2023-02-21T06:37:20;11.23;;;5.57;;
67193;SDS011;54121;53.508;49.422;2023-02-21T06:40:04;9.02;;;5.43;;
67193;SDS011;54121;53.508;49.422;2023-02-21T06:42:37;8.98;;;6.20;;
67193;SDS011;54121;53.508;49.422;2023-02-21T06:45:27;13.00;;;6.65;;
67193;SDS011;54121;53.508;49.422;2023-02-21T06:48:21;11.10;;;6.40;;
67193;SDS011;54121;53.508;49.422;2023-02-21T06:50:54;8.98;;;3.53;;
67193;SDS011;54121;53.508;49.422;2023-02-21T06:53:20;8.98;;;4.72;;
67193;SDS011;54121;53.508;49.422;2023-02-21T06:55:58;11.50;;;7.13;;
67193;SDS011;54121;53.508;49.422;2023-02-21T07:01:45;22.67;;;6.10;;
67193;SDS011;54121;53.508;49.422;2023-02-21T07:04:17;9.77;;;5.40;;
67193;SDS011;54121;53.508;49.422;2023-02-21T07:06:45;8.50;;;5.28;;
67193;SDS011;54121;53.508;49.422;2023-02-21T07:09:32;11.15;;;6.88;;
67193;SDS011;54121;53.508;49.422;2023-02-21T07:11:59;7.32;;;4.97;;
67193;SDS011;54121;53.508;49.422;2023-02-21T07:14:25;11.65;;;7.63;;
67193;SDS011;54121;53.508;49.422;2023-02-21T07:16:58;9.93;;;6.78;;
67193;SDS011;54121;53.508;49.422;2023-02-21T07:19:29;9.10;;;4.95;;
67193;SDS011;54121;53.508;49.422;2023-02-21T07:21:55;11.07;;;5.72;;
67193;SDS011;54121;53.508;49.422;2023-02-21T07:24:33;8.02;;;4.80;;
67193;SDS011;54121;53.508;49.422;2023-02-21T07:27:12;7.60;;;5.72;;
67193;SDS011;54121;53.508;49.422;2023-02-21T07:29:56;9.07;;;5.57;;
67193;SDS011;54121;53.508;49.422;2023-02-21T07:32:28;7.20;;;4.05;;
67193;SDS011;54121;53.508;49.422;2023-02-21T07:34:55;10.50;;;6.60;;
67193;SDS011;54121;53.508;49.422;2023-02-21T07:37:27;11.43;;;6.15;;
67193;SDS011;54121;53.508;49.422;2023-02-21T07:39:59;6.72;;;3.95;;
67193;SDS011;54121;53.508;49.422;2023-02-21T07:42:26;10.60;;;4.20;;
67193;SDS011;54121;53.508;49.422;2023-02-21T07:44:56;6.88;;;4.45;;
67193;SDS011;54121;53.508;49.422;2023-02-21T07:47:23;7.95;;;4.85;;
67193;SDS011;54121;53.508;49.422;2023-02-21T07:49:50;11.48;;;5.78;;
67193;SDS011;54121;53.508;49.422;2023-02-21T07:52:20;11.48;;;5.80;;
67193;SDS011;54121;53.508;49.422;2023-02-21T07:54:47;8.25;;;5.85;;
67193;SDS011;54121;53.508;49.422;2023-02-21T07:57:15;9.07;;;4.72;;
67193;SDS011;54121;53.508;49.422;2023-02-21T07:59:41;7.90;;;5.50;;
67193;SDS011;54121;53.508;49.422;2023-02-21T08:02:14;8.00;;;5.20;;
67193;SDS011;54121;53.508;49.422;2023-02-21T08:04:53;9.73;;;5.40;;
67193;SDS011;54121;53.508;49.422;2023-02-21T08:07:19;8.70;;;5.90;;
67193;SDS011;54121;53.508;49.422;2023-02-21T08:09:52;8.00;;;5.78;;
67193;SDS011;54121;53.508;49.422;2023-02-21T08:12:30;8.60;;;5.68;;
67193;SDS011;54121;53.508;49.422;2023-02-21T08:15:12;8.77;;;5.85;;
67193;SDS011;54121;53.508;49.422;2023-02-21T08:17:39;9.52;;;5.97;;
67193;SDS011;54121;53.508;49.422;2023-02-21T08:20:11;9.93;;;6.13;;
67193;SDS011;54121;53.508;49.422;2023-02-21T08:22:42;6.82;;;5.30;;
67193;SDS011;54121;53.508;49.422;2023-02-21T08:25:11;10.88;;;6.60;;
67193;SDS011;54121;53.508;49.422;2023-02-21T08:27:39;7.88;;;4.65;;
67193;SDS011;54121;53.508;49.422;2023-02-21T08:30:07;8.90;;;5.88;;
67193;SDS011;54121;53.508;49.422;2023-02-21T08:32:35;9.82;;;5.97;;
67193;SDS011;54121;53.508;49.422;2023-02-21T08:35:09;7.07;;;5.07;;
67193;SDS011;54121;53.508;49.422;2023-02-21T08:37:48;12.82;;;5.30;;
67193;SDS011;54121;53.508;49.422;2023-02-21T08:40:22;10.10;;;6.15;;
67193;SDS011;54121;53.508;49.422;2023-02-21T08:43:11;9.32;;;5.95;;
67193;SDS011;54121;53.508;49.422;2023-02-21T08:45:49;7.78;;;5.47;;
67193;SDS011;54121;53.508;49.422;2023-02-21T08:48:22;7.03;;;5.75;;
67193;SDS011;54121;53.508;49.422;2023-02-21T08:51:06;7.28;;;5.20;;
67193;SDS011;54121;53.508;49.422;2023-02-21T08:53:50;10.60;;;6.20;;
67193;SDS011;54121;53.508;49.422;2023-02-21T08:56:50;12.77;;;7.80;;
67193;SDS011;54121;53.508;49.422;2023-02-21T08:59:56;10.35;;;6.25;;
67193;SDS011;54121;53.508;49.422;2023-02-21T09:02:40;9.10;;;6.18;;
67193;SDS011;54121;53.508;49.422;2023-02-21T09:05:31;9.73;;;6.20;;
67193;SDS011;54121;53.508;49.422;2023-02-21T09:08:03;8.57;;;6.15;;
67193;SDS011;54121;53.508;49.422;2023-02-21T09:10:46;9.93;;;6.88;;
67193;SDS011;54121;53.508;49.422;2023-02-21T09:13:13;10.18;;;6.13;;
67193;SDS011;54121;53.508;49.422;2023-02-21T09:16:09;8.50;;;6.00;;
67193;SDS011;54121;53.508;49.422;2023-02-21T09:18:41;10.07;;;5.47;;
67193;SDS011;54121;53.508;49.422;2023-02-21T09:21:07;8.73;;;5.85;;
67193;SDS011;54121;53.508;49.422;2023-02-21T09:23:37;8.68;;;5.72;;
67193;SDS011;54121;53.508;49.422;2023-02-21T09:26:03;8.43;;;5.32;;
67193;SDS011;54121;53.508;49.422;2023-02-21T09:28:42;8.43;;;5.25;;
67193;SDS011;54121;53.508;49.422;2023-02-21T09:31:25;8.77;;;4.55;;
67193;SDS011;54121;53.508;49.422;2023-02-21T09:34:15;8.43;;;5.80;;
67193;SDS011;54121;53.508;49.422;2023-02-21T09:36:48;7.88;;;5.35;;
67193;SDS011;54121;53.508;49.422;2023-02-21T09:39:31;7.35;;;4.70;;
67193;SDS011;54121;53.508;49.422;2023-02-21T09:41:58;7.93;;;5.07;;
67193;SDS011;54121;53.508;49.422;2023-02-21T09:44:25;7.72;;;4.70;;
67193;SDS011;54121;53.508;49.422;2023-02-21T09:47:25;7.95;;;4.40;;
67193;SDS011;54121;53.508;49.422;2023-02-21T09:49:57;7.65;;;4.93;;
67193;SDS011;54121;53.508;49.422;2023-02-21T09:52:59;8.38;;;5.07;;
67193;SDS011;54121;53.508;49.422;2023-02-21T09:55:34;9.43;;;5.38;;
67193;SDS011;54121;53.508;49.422;2023-02-21T09:58:16;7.22;;;4.82;;
67193;SDS011;54121;53.508;49.422;2023-02-21T10:01:09;7.80;;;5.15;;
67193;SDS011;54121;53.508;49.422;2023-02-21T10:03:54;7.22;;;4.30;;
67193;SDS011;54121;53.508;49.422;2023-02-21T10:15:46;8.13;;;5.45;;
67193;SDS011;54121;53.508;49.422;2023-02-21T10:18:55;7.32;;;4.47;;
67193;SDS011;54121;53.508;49.422;2023-02-21T10:21:52;8.13;;;5.15;;
67193;SDS011;54121;53.508;49.422;2023-02-21T10:25:07;8.20;;;4.97;;
67193;SDS011;54121;53.508;49.422;2023-02-21T10:28:02;7.40;;;5.35;;
67193;SDS011;54121;53.508;49.422;2023-02-21T10:30:56;6.80;;;4.03;;
67193;SDS011;54121;53.508;49.422;2023-02-21T10:33:27;6.00;;;5.15;;
67193;SDS011;54121;53.508;49.422;2023-02-21T10:35:58;6.47;;;4.45;;
67193;SDS011;54121;53.508;49.422;2023-02-21T10:38:45;6.22;;;4.55;;
67193;SDS011;54121;53.508;49.422;2023-02-21T10:41:34;6.85;;;4.88;;
67193;SDS011;54121;53.508;49.422;2023-02-21T10:44:13;5.72;;;3.63;;
67193;SDS011;54121;53.508;49.422;2023-02-21T10:52:30;6.80;;;3.85;;
67193;SDS011;54121;53.508;49.422;2023-02-21T10:55:19;4.55;;;3.42;;
67193;SDS011;54121;53.508;49.422;2023-02-21T10:57:54;7.70;;;3.72;;
67193;SDS011;54121;53.508;49.422;2023-02-21T11:00:38;5.53;;;3.15;;
67193;SDS011;54121;53.508;49.422;2023-02-21T11:05:48;4.88;;;3.33;;
67193;SDS011;54121;53.508;49.422;2023-02-21T11:08:32;8.80;;;3.90;;
67193;SDS011;54121;53.508;49.422;2023-02-21T11:11:03;6.25;;;3.75;;
67193;SDS011;54121;53.508;49.422;2023-02-21T11:13:41;7.78;;;4.15;;
67193;SDS011;54121;53.508;49.422;2023-02-21T11:16:15;5.47;;;2.38;;
67193;SDS011;54121;53.508;49.422;2023-02-21T11:19:05;3.83;;;2.80;;
67193;SDS011;54121;53.508;49.422;2023-02-21T11:24:45;4.40;;;3.17;;
67193;SDS011;54121;53.508;49.422;2023-02-21T11:28:03;4.82;;;1.85;;
67193;SDS011;54121;53.508;49.422;2023-02-21T11:33:24;5.05;;;3.17;;
67193;SDS011;54121;53.508;49.422;2023-02-21T11:35:51;4.68;;;2.90;;
67193;SDS011;54121;53.508;49.422;2023-02-21T11:41:27;3.65;;;2.40;;
67193;SDS011;54121;53.508;49.422;2023-02-21T11:50:04;3.97;;;2.15;;
67193;SDS011;54121;53.508;49.422;2023-02-21T11:55:51;3.80;;;2.75;;
67193;SDS011;54121;53.508;49.422;2023-02-21T12:01:11;2.70;;;2.20;;
67193;SDS011;54121;53.508;49.422;2023-02-21T12:04:34;4.25;;;2.97;;
67193;SDS011;54121;53.508;49.422;2023-02-21T12:07:39;4.95;;;2.90;;
67193;SDS011;54121;53.508;49.422;2023-02-21T12:25:19;4.15;;;2.85;;
67193;SDS011;54121;53.508;49.422;2023-02-21T12:55:11;4.18;;;3.00;;
67193;SDS011;54121;53.508;49.422;2023-02-21T13:00:23;3.92;;;2.95;;
67193;SDS011;54121;53.508;49.422;2023-02-21T13:06:37;3.90;;;3.03;;
67193;SDS011;54121;53.508;49.422;2023-02-21T13:09:49;4.13;;;2.97;;
67193;SDS011;54121;53.508;49.422;2023-02-21T13:12:18;3.17;;;2.15;;
67193;SDS011;54121;53.508;49.422;2023-02-21T13:15:18;6.80;;;3.03;;
67193;SDS011;54121;53.508;49.422;2023-02-21T13:20:55;4.03;;;3.03;;
67193;SDS011;54121;53.508;49.422;2023-02-21T13:23:53;4.90;;;2.83;;
67193;SDS011;54121;53.508;49.422;2023-02-21T13:29:48;4.38;;;3.20;;
67193;SDS011;54121;53.508;49.422;2023-02-21T13:32:17;5.85;;;3.55;;
67193;SDS011;54121;53.508;49.422;2023-02-21T13:34:59;5.68;;;4.40;;
67193;SDS011;54121;53.508;49.422;2023-02-21T13:37:31;4.93;;;3.17;;
67193;SDS011;54121;53.508;49.422;2023-02-21T13:40:11;4.43;;;2.97;;
67193;SDS011;54121;53.508;49.422;2023-02-21T13:43:27;4.55;;;3.28;;
67193;SDS011;54121;53.508;49.422;2023-02-21T13:55:15;4.40;;;3.13;;
67193;SDS011;54121;53.508;49.422;2023-02-21T14:05:21;7.32;;;4.97;;
67193;SDS011;54121;53.508;49.422;2023-02-21T14:10:38;7.80;;;4.18;;
67193;SDS011;54121;53.508;49.422;2023-02-21T14:24:44;7.05;;;5.00;;
67193;SDS011;54121;53.508;49.422;2023-02-21T14:27:34;6.53;;;4.22;;
67193;SDS011;54121;53.508;49.422;2023-02-21T14:30:36;6.57;;;4.75;;
67193;SDS011;54121;53.508;49.422;2023-02-21T14:33:23;6.75;;;4.32;;
67193;SDS011;54121;53.508;49.422;2023-02-21T14:36:07;8.38;;;5.07;;
67193;SDS011;54121;53.508;49.422;2023-02-21T14:38:43;6.90;;;4.25;;
67193;SDS011;54121;53.508;49.422;2023-02-21T14:44:29;8.57;;;4.78;;
67193;SDS011;54121;53.508;49.422;2023-02-21T14:46:55;5.40;;;4.13;;
67193;SDS011;54121;53.508;49.422;2023-02-21T14:49:58;7.00;;;3.85;;
67193;SDS011;54121;53.508;49.422;2023-02-21T15:07:00;9.35;;;5.38;;
67193;SDS011;54121;53.508;49.422;2023-02-21T15:09:39;5.83;;;4.27;;
67193;SDS011;54121;53.508;49.422;2023-02-21T15:12:15;6.93;;;4.75;;
67193;SDS011;54121;53.508;49.422;2023-02-21T15:14:47;9.70;;;5.28;;
67193;SDS011;54121;53.508;49.422;2023-02-21T15:17:17;9.98;;;5.07;;
67193;SDS011;54121;53.508;49.422;2023-02-21T15:22:25;11.88;;;4.20;;
67193;SDS011;54121;53.508;49.422;2023-02-21T15:24:56;7.50;;;4.70;;
67193;SDS011;54121;53.508;49.422;2023-02-21T15:30:24;6.63;;;4.15;;
67193;SDS011;54121;53.508;49.422;2023-02-21T15:33:31;7.75;;;4.97;;
67193;SDS011;54121;53.508;49.422;2023-02-21T15:36:17;10.18;;;4.90;;
67193;SDS011;54121;53.508;49.422;2023-02-21T15:39:19;9.40;;;4.78;;
67193;SDS011;54121;53.508;49.422;2023-02-21T15:41:52;9.35;;;4.88;;
67193;SDS011;54121;53.508;49.422;2023-02-21T15:45:02;10.60;;;5.72;;
67193;SDS011;54121;53.508;49.422;2023-02-21T15:47:34;9.35;;;4.38;;
67193;SDS011;54121;53.508;49.422;2023-02-21T15:50:04;11.30;;;5.90;;
67193;SDS011;54121;53.508;49.422;2023-02-21T15:52:38;11.02;;;6.07;;
67193;SDS011;54121;53.508;49.422;2023-02-21T16:01:01;10.88;;;5.90;;
67193;SDS011;54121;53.508;49.422;2023-02-21T16:03:33;10.75;;;5.55;;
67193;SDS011;54121;53.508;49.422;2023-02-21T16:06:08;9.60;;;5.00;;
67193;SDS011;54121;53.508;49.422;2023-02-21T16:09:29;11.82;;;6.85;;
67193;SDS011;54121;53.508;49.422;2023-02-21T16:14:45;8.23;;;4.60;;
67193;SDS011;54121;53.508;49.422;2023-02-21T16:17:27;11.50;;;5.13;;
67193;SDS011;54121;53.508;49.422;2023-02-21T16:20:14;8.57;;;4.55;;
67193;SDS011;54121;53.508;49.422;2023-02-21T16:28:48;7.30;;;4.45;;
67193;SDS011;54121;53.508;49.422;2023-02-21T16:31:43;8.60;;;6.35;;
67193;SDS011;54121;53.508;49.422;2023-02-21T16:34:11;10.80;;;6.95;;
67193;SDS011;54121;53.508;49.422;2023-02-21T16:36:38;8.38;;;4.13;;
67193;SDS011;54121;53.508;49.422;2023-02-21T16:39:07;9.05;;;4.70;;
67193;SDS011;54121;53.508;49.422;2023-02-21T16:41:35;8.23;;;4.95;;
67193;SDS011;54121;53.508;49.422;2023-02-21T16:44:01;9.48;;;5.75;;
67193;SDS011;54121;53.508;49.422;2023-02-21T16:46:28;10.88;;;5.80;;
67193;SDS011;54121;53.508;49.422;2023-02-21T16:48:55;7.38;;;4.13;;
67193;SDS011;54121;53.508;49.422;2023-02-21T16:51:22;9.52;;;5.10;;
67193;SDS011;54121;53.508;49.422;2023-02-21T16:53:48;10.48;;;5.53;;
67193;SDS011;54121;53.508;49.422;2023-02-21T16:56:15;8.77;;;4.68;;
67193;SDS011;54121;53.508;49.422;2023-02-21T16:58:52;9.77;;;4.97;;
67193;SDS011;54121;53.508;49.422;2023-02-21T17:01:27;9.20;;;5.35;;
67193;SDS011;54121;53.508;49.422;2023-02-21T17:03:57;13.52;;;5.30;;
67193;SDS011;54121;53.508;49.422;2023-02-21T17:06:24;8.55;;;4.68;;
67193;SDS011;54121;53.508;49.422;2023-02-21T17:08:53;10.23;;;5.47;;
67193;SDS011;54121;53.508;49.422;2023-02-21T17:11:20;15.63;;;6.35;;
67193;SDS011;54121;53.508;49.422;2023-02-21T17:13:47;5.20;;;3.65;;
67193;SDS011;54121;53.508;49.422;2023-02-21T17:16:14;5.93;;;3.50;;
67193;SDS011;54121;53.508;49.422;2023-02-21T17:18:44;9.13;;;4.75;;
67193;SDS011;54121;53.508;49.422;2023-02-21T17:21:12;4.65;;;3.13;;
67193;SDS011;54121;53.508;49.422;2023-02-21T17:23:40;8.52;;;4.70;;
67193;SDS011;54121;53.508;49.422;2023-02-21T17:26:08;9.10;;;5.55;;
67193;SDS011;54121;53.508;49.422;2023-02-21T17:31:04;8.27;;;4.05;;
67193;SDS011;54121;53.508;49.422;2023-02-21T17:33:31;8.82;;;4.93;;
67193;SDS011;54121;53.508;49.422;2023-02-21T17:36:26;8.50;;;4.28;;
67193;SDS011;54121;53.508;49.422;2023-02-21T17:38:53;6.68;;;4.57;;
67193;SDS011;54121;53.508;49.422;2023-02-21T17:41:32;5.00;;;3.45;;
67193;SDS011;54121;53.508;49.422;2023-02-21T17:43:59;8.30;;;4.25;;
67193;SDS011;54121;53.508;49.422;2023-02-21T17:46:25;7.38;;;4.28;;
67193;SDS011;54121;53.508;49.422;2023-02-21T17:48:52;12.05;;;4.10;;
67193;SDS011;54121;53.508;49.422;2023-02-21T17:51:22;8.90;;;3.95;;
67193;SDS011;54121;53.508;49.422;2023-02-21T17:53:51;9.07;;;3.35;;
67193;SDS011;54121;53.508;49.422;2023-02-21T17:56:19;8.07;;;3.20;;
67193;SDS011;54121;53.508;49.422;2023-02-21T17:58:49;5.03;;;3.58;;
67193;SDS011;54121;53.508;49.422;2023-02-21T18:01:16;6.43;;;3.20;;
67193;SDS011;54121;53.508;49.422;2023-02-21T18:03:44;6.65;;;3.53;;
67193;SDS011;54121;53.508;49.422;2023-02-21T18:06:12;5.85;;;3.70;;
67193;SDS011;54121;53.508;49.422;2023-02-21T18:08:39;6.05;;;3.00;;
67193;SDS011;54121;53.508;49.422;2023-02-21T18:11:12;4.43;;;3.10;;
67193;SDS011;54121;53.508;49.422;2023-02-21T18:13:42;6.88;;;3.33;;
67193;SDS011;54121;53.508;49.422;2023-02-21T18:16:09;6.47;;;3.83;;
67193;SDS011;54121;53.508;49.422;2023-02-21T18:18:37;5.28;;;3.70;;
67193;SDS011;54121;53.508;49.422;2023-02-21T18:21:04;7.55;;;3.50;;
67193;SDS011;54121;53.508;49.422;2023-02-21T18:23:34;6.45;;;3.90;;
67193;SDS011;54121;53.508;49.422;2023-02-21T18:26:03;4.80;;;3.58;;
67193;SDS011;54121;53.508;49.422;2023-02-21T18:28:30;8.43;;;4.38;;
67193;SDS011;54121;53.508;49.422;2023-02-21T18:30:56;6.90;;;3.80;;
67193;SDS011;54121;53.508;49.422;2023-02-21T18:33:23;5.85;;;3.42;;
67193;SDS011;54121;53.508;49.422;2023-02-21T18:35:58;5.60;;;3.75;;
67193;SDS011;54121;53.508;49.422;2023-02-21T18:38:25;5.63;;;3.60;;
67193;SDS011;54121;53.508;49.422;2023-02-21T18:40:52;3.70;;;2.85;;
67193;SDS011;54121;53.508;49.422;2023-02-21T18:43:23;6.40;;;3.38;;
67193;SDS011;54121;53.508;49.422;2023-02-21T18:45:52;6.05;;;3.28;;
67193;SDS011;54121;53.508;49.422;2023-02-21T18:48:21;5.43;;;3.28;;
67193;SDS011;54121;53.508;49.422;2023-02-21T18:50:49;8.93;;;3.28;;
67193;SDS011;54121;53.508;49.422;2023-02-21T18:53:15;6.10;;;3.65;;